Observations for CHERBOURG MAUPERTUS, France (LFRC)

LFRC 182100Z AUTO 08011KT 9999 FEW019 08/04 Q1020   
LFRC 182030Z AUTO 08012KT CAVOK 09/04 Q1020 
LFRC 182000Z AUTO 08013KT CAVOK 09/04 Q1020 
LFRC 181930Z AUTO 09012KT 9999 FEW020 09/04 Q1020   
LFRC 181900Z AUTO 09011KT 040V110 9999 SCT019 09/05 Q1020   
LFRC 181830Z AUTO 08011KT CAVOK 09/05 Q1021 BECMG 09015G30KT
LFRC 181800Z AUTO 08014KT CAVOK 09/05 Q1021 BECMG 09015G30KT
LFRC 181730Z AUTO 08013KT CAVOK 08/04 Q1021 BECMG 09015G30KT
LFRC 181700Z AUTO 09013KT CAVOK 08/04 Q1021 BECMG 09015G30KT
LFRC 181630Z AUTO 08014KT CAVOK 08/04 Q1021 BECMG 09015G30KT
LFRC 181600Z AUTO 08014KT CAVOK 08/03 Q1021 BECMG 09015G30KT
LFRC 181530Z AUTO 08015KT 050V110 9999 FEW019 08/03 Q1021 BECMG 09015G30KT  
LFRC 181500Z AUTO 08015KT 050V110 9999 SCT019 09/03 Q1021 BECMG 09015G30KT  
LFRC 181430Z AUTO 09014G24KT 9999 FEW019 09/03 Q1021 NOSIG  
LFRC 181400Z AUTO 09016KT CAVOK 09/02 Q1021 BECMG 09015G30KT
LFRC 181330Z AUTO 09016KT CAVOK 09/02 Q1021 BECMG 09015G30KT
LFRC 181300Z AUTO 09017KT CAVOK 09/03 Q1021 BECMG 09015G30KT
LFRC 181230Z AUTO 09016KT CAVOK 08/02 Q1022 BECMG 09015G30KT
LFRC 181200Z AUTO 09016KT CAVOK 08/02 Q1022 BECMG 09015G30KT
LFRC 181130Z AUTO 09015KT CAVOK 08/02 Q1022 BECMG 09015G30KT
LFRC 181100Z AUTO 10016KT CAVOK 08/02 Q1022 BECMG 09015G30KT
LFRC 181030Z AUTO 09013KT CAVOK 08/02 Q1022 BECMG 09015G30KT
LFRC 181000Z AUTO 10016KT CAVOK 08/02 Q1023 BECMG 09015G30KT
LFRC 180930Z AUTO 09014KT CAVOK 08/02 Q1023 BECMG 09015G30KT
LFRC 180900Z AUTO 10016KT CAVOK 07/02 Q1023 TEMPO 09015G25KT
LFRC 180830Z AUTO 10011KT CAVOK 07/02 Q1023 TEMPO 09015G25KT
LFRC 180800Z AUTO 10011KT CAVOK 07/02 Q1023 TEMPO 09015G25KT
LFRC 180730Z AUTO 10009KT CAVOK 06/02 Q1023 TEMPO 09015G25KT
LFRC 180700Z AUTO 10011KT CAVOK 06/02 Q1022 NOSIG   
LFRC 180630Z AUTO 11008KT CAVOK 06/02 Q1022 NOSIG   
LFRC 180600Z AUTO 10010KT CAVOK 06/02 Q1022 NOSIG   
LFRC 180530Z AUTO 10010KT CAVOK 06/03 Q1022 NOSIG   
LFRC 180500Z AUTO 10012KT CAVOK 06/03 Q1022 
LFRC 180430Z AUTO 09009KT CAVOK 06/03 Q1022 
LFRC 180400Z AUTO 09011KT CAVOK 07/03 Q1022 
LFRC 180330Z AUTO 10011KT CAVOK 06/03 Q1022 
LFRC 180300Z AUTO 11012KT CAVOK 06/03 Q1022 
LFRC 180230Z AUTO 10012KT CAVOK 07/02 Q1022 
LFRC 180200Z AUTO 10013KT CAVOK 06/03 Q1022 
LFRC 180130Z AUTO 10013KT CAVOK 06/02 Q1022 
LFRC 180100Z AUTO 11012KT CAVOK 07/02 Q1022 
LFRC 180030Z AUTO 11013KT CAVOK 07/02 Q1022 
LFRC 180000Z AUTO 11013KT CAVOK 07/02 Q1022 
LFRC 172330Z AUTO 11014KT CAVOK 07/02 Q1022 
LFRC 172300Z AUTO 11016KT CAVOK 08/02 Q1022 
LFRC 172230Z AUTO 11015KT CAVOK 08/02 Q1022 
LFRC 172200Z AUTO 11019KT CAVOK 08/02 Q1022 
LFRC 172130Z AUTO 11014KT CAVOK 07/02 Q1022 
LFRC 172100Z AUTO 11016KT CAVOK 07/02 Q1022 
LFRC 172030Z AUTO 11017KT CAVOK 07/03 Q1022